sensor_id;sensor_type;location;lat;lon;timestamp;P1;durP1;ratioP1;P2;durP2;ratioP2
74959;SDS011;63518;49.572;1.106;2023-05-18T00:01:59;15.80;;;6.50;;
74959;SDS011;63518;49.572;1.106;2023-05-18T00:04:27;19.58;;;7.03;;
74959;SDS011;63518;49.572;1.106;2023-05-18T00:06:55;18.90;;;6.35;;
74959;SDS011;63518;49.572;1.106;2023-05-18T00:09:29;19.23;;;6.07;;
74959;SDS011;63518;49.572;1.106;2023-05-18T00:11:57;16.80;;;5.95;;
74959;SDS011;63518;49.572;1.106;2023-05-18T00:14:25;14.57;;;5.80;;
74959;SDS011;63518;49.572;1.106;2023-05-18T00:16:52;17.30;;;6.30;;
74959;SDS011;63518;49.572;1.106;2023-05-18T00:19:20;16.60;;;5.95;;
74959;SDS011;63518;49.572;1.106;2023-05-18T00:21:50;14.38;;;5.15;;
74959;SDS011;63518;49.572;1.106;2023-05-18T00:24:18;15.27;;;6.55;;
74959;SDS011;63518;49.572;1.106;2023-05-18T00:26:46;14.60;;;5.55;;
74959;SDS011;63518;49.572;1.106;2023-05-18T00:29:13;16.92;;;6.25;;
74959;SDS011;63518;49.572;1.106;2023-05-18T00:31:41;18.95;;;5.65;;
74959;SDS011;63518;49.572;1.106;2023-05-18T00:34:13;12.27;;;4.95;;
74959;SDS011;63518;49.572;1.106;2023-05-18T00:36:41;16.02;;;4.55;;
74959;SDS011;63518;49.572;1.106;2023-05-18T00:39:08;13.52;;;4.97;;
74959;SDS011;63518;49.572;1.106;2023-05-18T00:41:35;13.68;;;4.82;;
74959;SDS011;63518;49.572;1.106;2023-05-18T00:44:02;15.25;;;5.80;;
74959;SDS011;63518;49.572;1.106;2023-05-18T00:46:30;14.02;;;4.63;;
74959;SDS011;63518;49.572;1.106;2023-05-18T00:48:58;10.75;;;4.13;;
74959;SDS011;63518;49.572;1.106;2023-05-18T00:51:27;11.40;;;4.43;;
74959;SDS011;63518;49.572;1.106;2023-05-18T00:53:55;14.07;;;4.63;;
74959;SDS011;63518;49.572;1.106;2023-05-18T00:56:22;11.82;;;4.22;;
74959;SDS011;63518;49.572;1.106;2023-05-18T00:58:53;11.57;;;3.30;;
74959;SDS011;63518;49.572;1.106;2023-05-18T01:01:26;13.80;;;4.47;;
74959;SDS011;63518;49.572;1.106;2023-05-18T01:03:55;13.85;;;4.85;;
74959;SDS011;63518;49.572;1.106;2023-05-18T01:06:23;13.52;;;4.50;;
74959;SDS011;63518;49.572;1.106;2023-05-18T01:08:52;12.95;;;4.13;;
74959;SDS011;63518;49.572;1.106;2023-05-18T01:14:03;11.68;;;3.97;;
74959;SDS011;63518;49.572;1.106;2023-05-18T01:16:40;10.82;;;3.67;;
74959;SDS011;63518;49.572;1.106;2023-05-18T01:19:38;13.80;;;4.78;;
74959;SDS011;63518;49.572;1.106;2023-05-18T01:22:16;13.02;;;4.32;;
74959;SDS011;63518;49.572;1.106;2023-05-18T01:24:47;10.55;;;3.75;;
74959;SDS011;63518;49.572;1.106;2023-05-18T01:27:18;13.93;;;4.38;;
74959;SDS011;63518;49.572;1.106;2023-05-18T01:29:50;13.65;;;4.63;;
74959;SDS011;63518;49.572;1.106;2023-05-18T01:32:21;10.80;;;4.03;;
74959;SDS011;63518;49.572;1.106;2023-05-18T01:35:01;10.32;;;3.58;;
74959;SDS011;63518;49.572;1.106;2023-05-18T01:37:28;13.05;;;4.10;;
74959;SDS011;63518;49.572;1.106;2023-05-18T01:39:55;9.23;;;3.75;;
74959;SDS011;63518;49.572;1.106;2023-05-18T01:42:23;11.13;;;3.55;;
74959;SDS011;63518;49.572;1.106;2023-05-18T01:44:57;9.13;;;3.25;;
74959;SDS011;63518;49.572;1.106;2023-05-18T01:47:28;10.95;;;4.20;;
74959;SDS011;63518;49.572;1.106;2023-05-18T01:50:04;10.68;;;3.95;;
74959;SDS011;63518;49.572;1.106;2023-05-18T01:52:41;10.02;;;4.03;;
74959;SDS011;63518;49.572;1.106;2023-05-18T01:55:14;10.27;;;3.45;;
74959;SDS011;63518;49.572;1.106;2023-05-18T01:57:43;12.98;;;3.80;;
74959;SDS011;63518;49.572;1.106;2023-05-18T02:00:12;10.18;;;3.80;;
74959;SDS011;63518;49.572;1.106;2023-05-18T02:02:39;12.00;;;4.43;;
74959;SDS011;63518;49.572;1.106;2023-05-18T02:05:06;12.35;;;3.85;;
74959;SDS011;63518;49.572;1.106;2023-05-18T02:07:37;18.58;;;4.43;;
74959;SDS011;63518;49.572;1.106;2023-05-18T02:10:05;12.13;;;4.10;;
74959;SDS011;63518;49.572;1.106;2023-05-18T02:12:33;14.27;;;4.57;;
74959;SDS011;63518;49.572;1.106;2023-05-18T02:14:59;11.50;;;4.18;;
74959;SDS011;63518;49.572;1.106;2023-05-18T02:17:31;9.82;;;3.85;;
74959;SDS011;63518;49.572;1.106;2023-05-18T02:19:58;13.02;;;4.18;;
74959;SDS011;63518;49.572;1.106;2023-05-18T02:22:25;12.82;;;4.28;;
74959;SDS011;63518;49.572;1.106;2023-05-18T02:24:52;11.40;;;3.83;;
74959;SDS011;63518;49.572;1.106;2023-05-18T02:27:19;12.38;;;3.53;;
74959;SDS011;63518;49.572;1.106;2023-05-18T02:29:46;9.73;;;3.30;;
74959;SDS011;63518;49.572;1.106;2023-05-18T02:32:12;11.15;;;3.78;;
74959;SDS011;63518;49.572;1.106;2023-05-18T02:34:39;13.10;;;3.92;;
74959;SDS011;63518;49.572;1.106;2023-05-18T02:37:07;11.07;;;3.70;;
74959;SDS011;63518;49.572;1.106;2023-05-18T02:39:34;9.45;;;3.45;;
74959;SDS011;63518;49.572;1.106;2023-05-18T02:42:01;9.68;;;3.40;;
74959;SDS011;63518;49.572;1.106;2023-05-18T02:44:28;9.00;;;3.22;;
74959;SDS011;63518;49.572;1.106;2023-05-18T02:46:55;13.02;;;3.22;;
74959;SDS011;63518;49.572;1.106;2023-05-18T02:49:22;9.82;;;3.00;;
74959;SDS011;63518;49.572;1.106;2023-05-18T02:51:49;11.45;;;3.22;;
74959;SDS011;63518;49.572;1.106;2023-05-18T02:54:15;10.73;;;3.00;;
74959;SDS011;63518;49.572;1.106;2023-05-18T02:56:42;8.70;;;2.45;;
74959;SDS011;63518;49.572;1.106;2023-05-18T02:59:09;8.93;;;3.08;;
74959;SDS011;63518;49.572;1.106;2023-05-18T03:01:37;6.60;;;2.35;;
74959;SDS011;63518;49.572;1.106;2023-05-18T03:04:05;12.25;;;2.70;;
74959;SDS011;63518;49.572;1.106;2023-05-18T03:06:32;8.05;;;2.53;;
74959;SDS011;63518;49.572;1.106;2023-05-18T03:09:01;9.02;;;2.75;;
74959;SDS011;63518;49.572;1.106;2023-05-18T03:11:28;5.70;;;1.85;;
74959;SDS011;63518;49.572;1.106;2023-05-18T03:13:55;8.43;;;2.35;;
74959;SDS011;63518;49.572;1.106;2023-05-18T03:16:21;9.00;;;2.10;;
74959;SDS011;63518;49.572;1.106;2023-05-18T03:18:54;8.27;;;2.60;;
74959;SDS011;63518;49.572;1.106;2023-05-18T03:21:24;11.43;;;2.50;;
74959;SDS011;63518;49.572;1.106;2023-05-18T03:23:51;7.10;;;2.15;;
74959;SDS011;63518;49.572;1.106;2023-05-18T03:26:17;8.05;;;2.17;;
74959;SDS011;63518;49.572;1.106;2023-05-18T03:28:44;8.30;;;2.35;;
74959;SDS011;63518;49.572;1.106;2023-05-18T03:31:11;8.25;;;2.25;;
74959;SDS011;63518;49.572;1.106;2023-05-18T03:33:38;9.00;;;2.70;;
74959;SDS011;63518;49.572;1.106;2023-05-18T03:36:05;6.18;;;2.00;;
74959;SDS011;63518;49.572;1.106;2023-05-18T03:38:32;7.40;;;2.17;;
74959;SDS011;63518;49.572;1.106;2023-05-18T03:40:59;9.18;;;1.98;;
74959;SDS011;63518;49.572;1.106;2023-05-18T03:43:26;7.72;;;2.67;;
74959;SDS011;63518;49.572;1.106;2023-05-18T03:45:54;6.68;;;2.20;;
74959;SDS011;63518;49.572;1.106;2023-05-18T03:48:22;9.63;;;2.60;;
74959;SDS011;63518;49.572;1.106;2023-05-18T03:50:49;9.40;;;2.58;;
74959;SDS011;63518;49.572;1.106;2023-05-18T03:53:16;10.05;;;1.73;;
74959;SDS011;63518;49.572;1.106;2023-05-18T03:55:44;8.73;;;2.90;;
74959;SDS011;63518;49.572;1.106;2023-05-18T03:58:11;11.27;;;2.22;;
74959;SDS011;63518;49.572;1.106;2023-05-18T04:00:38;7.38;;;1.77;;
74959;SDS011;63518;49.572;1.106;2023-05-18T04:03:05;7.35;;;2.25;;
74959;SDS011;63518;49.572;1.106;2023-05-18T04:05:33;6.10;;;1.85;;
74959;SDS011;63518;49.572;1.106;2023-05-18T04:07:59;6.25;;;1.90;;
74959;SDS011;63518;49.572;1.106;2023-05-18T04:10:26;5.80;;;1.77;;
74959;SDS011;63518;49.572;1.106;2023-05-18T04:12:53;7.90;;;1.65;;
74959;SDS011;63518;49.572;1.106;2023-05-18T04:15:20;5.82;;;2.20;;
74959;SDS011;63518;49.572;1.106;2023-05-18T04:17:50;7.63;;;1.80;;
74959;SDS011;63518;49.572;1.106;2023-05-18T04:20:19;6.07;;;1.75;;
74959;SDS011;63518;49.572;1.106;2023-05-18T04:22:47;6.35;;;1.58;;
74959;SDS011;63518;49.572;1.106;2023-05-18T04:25:14;8.43;;;2.05;;
74959;SDS011;63518;49.572;1.106;2023-05-18T04:27:41;6.97;;;2.10;;
74959;SDS011;63518;49.572;1.106;2023-05-18T04:30:11;6.05;;;1.70;;
74959;SDS011;63518;49.572;1.106;2023-05-18T04:32:39;6.63;;;1.88;;
74959;SDS011;63518;49.572;1.106;2023-05-18T04:35:08;7.47;;;1.92;;
74959;SDS011;63518;49.572;1.106;2023-05-18T04:37:37;4.20;;;1.45;;
74959;SDS011;63518;49.572;1.106;2023-05-18T04:40:10;4.80;;;1.40;;
74959;SDS011;63518;49.572;1.106;2023-05-18T04:42:42;6.32;;;1.70;;
74959;SDS011;63518;49.572;1.106;2023-05-18T04:45:14;9.43;;;2.00;;
74959;SDS011;63518;49.572;1.106;2023-05-18T04:47:43;5.82;;;1.70;;
74959;SDS011;63518;49.572;1.106;2023-05-18T04:50:15;14.20;;;1.70;;
74959;SDS011;63518;49.572;1.106;2023-05-18T04:52:43;6.45;;;1.90;;
74959;SDS011;63518;49.572;1.106;2023-05-18T04:55:18;6.15;;;2.08;;
74959;SDS011;63518;49.572;1.106;2023-05-18T04:57:53;7.00;;;1.45;;
74959;SDS011;63518;49.572;1.106;2023-05-18T05:00:23;7.30;;;1.55;;
74959;SDS011;63518;49.572;1.106;2023-05-18T05:03:10;4.55;;;1.40;;
74959;SDS011;63518;49.572;1.106;2023-05-18T05:05:37;7.25;;;2.08;;
74959;SDS011;63518;49.572;1.106;2023-05-18T05:08:04;8.05;;;1.77;;
74959;SDS011;63518;49.572;1.106;2023-05-18T05:10:32;6.00;;;1.80;;
74959;SDS011;63518;49.572;1.106;2023-05-18T05:12:58;8.38;;;1.95;;
74959;SDS011;63518;49.572;1.106;2023-05-18T05:15:25;5.68;;;1.73;;
74959;SDS011;63518;49.572;1.106;2023-05-18T05:17:52;5.13;;;1.80;;
74959;SDS011;63518;49.572;1.106;2023-05-18T05:20:19;7.05;;;1.63;;
74959;SDS011;63518;49.572;1.106;2023-05-18T05:22:46;8.90;;;2.15;;
74959;SDS011;63518;49.572;1.106;2023-05-18T05:25:13;6.63;;;1.70;;
74959;SDS011;63518;49.572;1.106;2023-05-18T05:27:40;7.22;;;2.10;;
74959;SDS011;63518;49.572;1.106;2023-05-18T05:30:07;5.18;;;1.92;;
74959;SDS011;63518;49.572;1.106;2023-05-18T05:32:34;4.85;;;1.60;;
74959;SDS011;63518;49.572;1.106;2023-05-18T05:35:02;5.93;;;1.80;;
74959;SDS011;63518;49.572;1.106;2023-05-18T05:37:29;7.55;;;1.98;;
74959;SDS011;63518;49.572;1.106;2023-05-18T05:39:56;5.38;;;1.55;;
74959;SDS011;63518;49.572;1.106;2023-05-18T05:42:23;6.53;;;1.65;;
74959;SDS011;63518;49.572;1.106;2023-05-18T05:44:50;6.60;;;1.85;;
74959;SDS011;63518;49.572;1.106;2023-05-18T05:47:17;8.73;;;1.52;;
74959;SDS011;63518;49.572;1.106;2023-05-18T05:49:44;7.78;;;2.13;;
74959;SDS011;63518;49.572;1.106;2023-05-18T05:52:11;5.20;;;1.63;;
74959;SDS011;63518;49.572;1.106;2023-05-18T05:54:38;6.95;;;2.08;;
74959;SDS011;63518;49.572;1.106;2023-05-18T05:57:06;4.47;;;1.63;;
74959;SDS011;63518;49.572;1.106;2023-05-18T05:59:32;6.60;;;2.05;;
74959;SDS011;63518;49.572;1.106;2023-05-18T06:01:59;7.43;;;2.30;;
74959;SDS011;63518;49.572;1.106;2023-05-18T06:04:26;7.78;;;1.63;;
74959;SDS011;63518;49.572;1.106;2023-05-18T06:06:53;9.15;;;1.80;;
74959;SDS011;63518;49.572;1.106;2023-05-18T06:09:20;5.95;;;1.33;;
74959;SDS011;63518;49.572;1.106;2023-05-18T06:11:47;7.75;;;1.60;;
74959;SDS011;63518;49.572;1.106;2023-05-18T06:14:13;5.13;;;1.67;;
74959;SDS011;63518;49.572;1.106;2023-05-18T06:16:40;4.95;;;1.55;;
74959;SDS011;63518;49.572;1.106;2023-05-18T06:19:07;7.65;;;1.88;;
74959;SDS011;63518;49.572;1.106;2023-05-18T06:21:34;7.45;;;1.85;;
74959;SDS011;63518;49.572;1.106;2023-05-18T06:24:01;4.82;;;1.50;;
74959;SDS011;63518;49.572;1.106;2023-05-18T06:26:30;10.98;;;2.13;;
74959;SDS011;63518;49.572;1.106;2023-05-18T06:28:57;5.20;;;1.80;;
74959;SDS011;63518;49.572;1.106;2023-05-18T06:31:24;8.45;;;1.80;;
74959;SDS011;63518;49.572;1.106;2023-05-18T06:33:51;6.55;;;1.98;;
74959;SDS011;63518;49.572;1.106;2023-05-18T06:36:18;6.05;;;1.98;;
74959;SDS011;63518;49.572;1.106;2023-05-18T06:38:45;5.97;;;2.10;;
74959;SDS011;63518;49.572;1.106;2023-05-18T06:41:12;6.88;;;2.10;;
74959;SDS011;63518;49.572;1.106;2023-05-18T06:43:38;5.93;;;2.00;;
74959;SDS011;63518;49.572;1.106;2023-05-18T06:46:05;5.63;;;2.25;;
74959;SDS011;63518;49.572;1.106;2023-05-18T06:48:33;6.13;;;2.00;;
74959;SDS011;63518;49.572;1.106;2023-05-18T06:51:01;10.32;;;2.05;;
74959;SDS011;63518;49.572;1.106;2023-05-18T06:53:27;8.88;;;2.08;;
74959;SDS011;63518;49.572;1.106;2023-05-18T06:55:57;8.13;;;2.22;;
74959;SDS011;63518;49.572;1.106;2023-05-18T06:58:23;11.25;;;2.50;;
74959;SDS011;63518;49.572;1.106;2023-05-18T07:00:50;4.72;;;1.83;;
74959;SDS011;63518;49.572;1.106;2023-05-18T07:03:20;9.13;;;2.28;;
74959;SDS011;63518;49.572;1.106;2023-05-18T07:05:47;8.70;;;2.22;;
74959;SDS011;63518;49.572;1.106;2023-05-18T07:08:15;9.93;;;2.75;;
74959;SDS011;63518;49.572;1.106;2023-05-18T07:13:15;7.00;;;2.20;;
74959;SDS011;63518;49.572;1.106;2023-05-18T07:15:42;8.98;;;2.35;;
74959;SDS011;63518;49.572;1.106;2023-05-18T07:18:20;8.88;;;2.70;;
74959;SDS011;63518;49.572;1.106;2023-05-18T07:20:51;6.85;;;1.80;;
74959;SDS011;63518;49.572;1.106;2023-05-18T07:23:19;10.63;;;2.50;;
74959;SDS011;63518;49.572;1.106;2023-05-18T07:25:47;11.40;;;2.63;;
74959;SDS011;63518;49.572;1.106;2023-05-18T07:28:15;8.50;;;2.78;;
74959;SDS011;63518;49.572;1.106;2023-05-18T07:30:54;6.65;;;2.30;;
74959;SDS011;63518;49.572;1.106;2023-05-18T07:33:22;8.52;;;2.90;;
74959;SDS011;63518;49.572;1.106;2023-05-18T07:35:50;11.43;;;3.00;;
74959;SDS011;63518;49.572;1.106;2023-05-18T07:38:21;7.63;;;2.50;;
74959;SDS011;63518;49.572;1.106;2023-05-18T07:40:51;9.70;;;2.40;;
74959;SDS011;63518;49.572;1.106;2023-05-18T07:43:19;7.75;;;2.50;;
74959;SDS011;63518;49.572;1.106;2023-05-18T07:45:47;7.60;;;2.95;;
74959;SDS011;63518;49.572;1.106;2023-05-18T07:48:17;8.00;;;2.55;;
74959;SDS011;63518;49.572;1.106;2023-05-18T07:50:48;11.30;;;3.00;;
74959;SDS011;63518;49.572;1.106;2023-05-18T07:53:17;8.68;;;1.90;;
74959;SDS011;63518;49.572;1.106;2023-05-18T07:55:55;6.85;;;2.03;;
74959;SDS011;63518;49.572;1.106;2023-05-18T07:58:23;8.60;;;3.03;;
74959;SDS011;63518;49.572;1.106;2023-05-18T08:00:51;10.38;;;2.78;;
74959;SDS011;63518;49.572;1.106;2023-05-18T08:03:30;11.63;;;2.80;;
74959;SDS011;63518;49.572;1.106;2023-05-18T08:06:05;7.90;;;2.75;;
74959;SDS011;63518;49.572;1.106;2023-05-18T08:08:39;9.60;;;2.60;;
74959;SDS011;63518;49.572;1.106;2023-05-18T08:13:43;7.43;;;2.15;;
74959;SDS011;63518;49.572;1.106;2023-05-18T08:16:14;11.05;;;2.88;;
74959;SDS011;63518;49.572;1.106;2023-05-18T08:18:44;8.25;;;2.38;;
74959;SDS011;63518;49.572;1.106;2023-05-18T08:21:13;8.90;;;2.72;;
74959;SDS011;63518;49.572;1.106;2023-05-18T08:23:45;8.52;;;2.47;;
74959;SDS011;63518;49.572;1.106;2023-05-18T08:26:13;10.82;;;3.47;;
74959;SDS011;63518;49.572;1.106;2023-05-18T08:28:51;6.63;;;2.75;;
74959;SDS011;63518;49.572;1.106;2023-05-18T08:31:24;11.35;;;2.95;;
74959;SDS011;63518;49.572;1.106;2023-05-18T08:33:52;9.48;;;2.53;;
74959;SDS011;63518;49.572;1.106;2023-05-18T08:36:29;8.38;;;2.42;;
74959;SDS011;63518;49.572;1.106;2023-05-18T08:38:58;8.82;;;2.35;;
74959;SDS011;63518;49.572;1.106;2023-05-18T08:41:31;7.53;;;2.50;;
74959;SDS011;63518;49.572;1.106;2023-05-18T08:44:19;8.45;;;2.20;;
74959;SDS011;63518;49.572;1.106;2023-05-18T08:46:49;6.97;;;2.05;;
74959;SDS011;63518;49.572;1.106;2023-05-18T08:49:18;6.95;;;2.20;;
74959;SDS011;63518;49.572;1.106;2023-05-18T08:51:55;9.27;;;2.40;;
74959;SDS011;63518;49.572;1.106;2023-05-18T08:54:30;7.75;;;2.42;;
74959;SDS011;63518;49.572;1.106;2023-05-18T08:57:10;12.00;;;2.40;;
74959;SDS011;63518;49.572;1.106;2023-05-18T08:59:45;9.45;;;2.83;;
74959;SDS011;63518;49.572;1.106;2023-05-18T09:02:17;7.88;;;2.30;;
74959;SDS011;63518;49.572;1.106;2023-05-18T09:04:47;7.07;;;1.80;;
74959;SDS011;63518;49.572;1.106;2023-05-18T09:07:19;9.57;;;2.00;;
74959;SDS011;63518;49.572;1.106;2023-05-18T09:09:52;7.97;;;1.98;;
74959;SDS011;63518;49.572;1.106;2023-05-18T09:12:27;8.63;;;1.90;;
74959;SDS011;63518;49.572;1.106;2023-05-18T09:15:05;9.13;;;1.85;;
74959;SDS011;63518;49.572;1.106;2023-05-18T09:17:37;6.63;;;1.63;;
74959;SDS011;63518;49.572;1.106;2023-05-18T09:20:10;4.90;;;1.45;;
74959;SDS011;63518;49.572;1.106;2023-05-18T09:22:50;6.90;;;1.35;;
74959;SDS011;63518;49.572;1.106;2023-05-18T09:25:26;5.13;;;1.60;;
74959;SDS011;63518;49.572;1.106;2023-05-18T09:28:00;5.78;;;1.88;;
74959;SDS011;63518;49.572;1.106;2023-05-18T09:30:41;6.70;;;1.77;;
74959;SDS011;63518;49.572;1.106;2023-05-18T09:33:19;7.45;;;2.00;;
74959;SDS011;63518;49.572;1.106;2023-05-18T09:36:06;7.43;;;1.90;;
74959;SDS011;63518;49.572;1.106;2023-05-18T09:38:45;6.85;;;1.75;;
74959;SDS011;63518;49.572;1.106;2023-05-18T09:41:24;8.50;;;2.78;;
74959;SDS011;63518;49.572;1.106;2023-05-18T09:44:00;5.22;;;1.85;;
74959;SDS011;63518;49.572;1.106;2023-05-18T09:46:53;5.68;;;1.50;;
74959;SDS011;63518;49.572;1.106;2023-05-18T09:49:27;5.78;;;1.40;;
74959;SDS011;63518;49.572;1.106;2023-05-18T09:52:05;5.78;;;1.70;;
74959;SDS011;63518;49.572;1.106;2023-05-18T09:54:59;6.47;;;1.77;;
74959;SDS011;63518;49.572;1.106;2023-05-18T09:57:28;6.65;;;1.60;;
74959;SDS011;63518;49.572;1.106;2023-05-18T10:00:02;9.20;;;2.03;;
74959;SDS011;63518;49.572;1.106;2023-05-18T10:02:42;7.32;;;2.20;;
74959;SDS011;63518;49.572;1.106;2023-05-18T10:05:26;6.15;;;1.60;;
74959;SDS011;63518;49.572;1.106;2023-05-18T10:08:01;9.82;;;1.70;;
74959;SDS011;63518;49.572;1.106;2023-05-18T10:10:29;7.10;;;2.65;;
74959;SDS011;63518;49.572;1.106;2023-05-18T10:13:06;6.33;;;2.43;;
74959;SDS011;63518;49.572;1.106;2023-05-18T10:15:34;7.57;;;2.47;;
74959;SDS011;63518;49.572;1.106;2023-05-18T10:18:03;8.23;;;2.60;;
74959;SDS011;63518;49.572;1.106;2023-05-18T10:20:33;5.75;;;2.03;;
74959;SDS011;63518;49.572;1.106;2023-05-18T10:23:03;6.60;;;2.15;;
74959;SDS011;63518;49.572;1.106;2023-05-18T10:25:36;5.18;;;1.65;;
74959;SDS011;63518;49.572;1.106;2023-05-18T10:28:18;6.20;;;1.75;;
74959;SDS011;63518;49.572;1.106;2023-05-18T10:30:54;8.18;;;2.10;;
74959;SDS011;63518;49.572;1.106;2023-05-18T10:33:25;5.90;;;1.52;;
74959;SDS011;63518;49.572;1.106;2023-05-18T10:35:58;6.93;;;1.90;;
74959;SDS011;63518;49.572;1.106;2023-05-18T10:38:30;9.38;;;1.75;;
74959;SDS011;63518;49.572;1.106;2023-05-18T10:41:03;8.48;;;2.10;;
74959;SDS011;63518;49.572;1.106;2023-05-18T10:43:32;9.05;;;1.90;;
74959;SDS011;63518;49.572;1.106;2023-05-18T10:46:04;6.63;;;1.73;;
74959;SDS011;63518;49.572;1.106;2023-05-18T10:48:40;5.00;;;1.30;;
74959;SDS011;63518;49.572;1.106;2023-05-18T10:51:13;6.07;;;1.80;;
74959;SDS011;63518;49.572;1.106;2023-05-18T10:53:41;4.85;;;1.60;;
74959;SDS011;63518;49.572;1.106;2023-05-18T10:56:16;5.97;;;1.50;;
74959;SDS011;63518;49.572;1.106;2023-05-18T10:58:45;6.03;;;1.58;;
74959;SDS011;63518;49.572;1.106;2023-05-18T11:01:20;5.13;;;1.67;;
74959;SDS011;63518;49.572;1.106;2023-05-18T11:03:49;8.00;;;1.80;;
74959;SDS011;63518;49.572;1.106;2023-05-18T11:06:17;8.52;;;2.40;;
74959;SDS011;63518;49.572;1.106;2023-05-18T11:08:53;6.35;;;1.75;;
74959;SDS011;63518;49.572;1.106;2023-05-18T11:11:49;6.78;;;2.05;;
74959;SDS011;63518;49.572;1.106;2023-05-18T11:14:24;5.85;;;1.50;;
74959;SDS011;63518;49.572;1.106;2023-05-18T11:17:14;6.70;;;1.85;;
74959;SDS011;63518;49.572;1.106;2023-05-18T11:22:45;4.07;;;1.17;;
74959;SDS011;63518;49.572;1.106;2023-05-18T11:27:56;9.27;;;1.60;;
74959;SDS011;63518;49.572;1.106;2023-05-18T11:30:28;7.28;;;1.52;;
74959;SDS011;63518;49.572;1.106;2023-05-18T11:35:59;5.65;;;1.60;;
74959;SDS011;63518;49.572;1.106;2023-05-18T11:41:38;6.88;;;1.90;;
74959;SDS011;63518;49.572;1.106;2023-05-18T11:44:23;8.63;;;2.00;;
74959;SDS011;63518;49.572;1.106;2023-05-18T11:47:09;6.32;;;1.90;;
74959;SDS011;63518;49.572;1.106;2023-05-18T11:49:41;7.63;;;1.83;;
74959;SDS011;63518;49.572;1.106;2023-05-18T11:52:18;6.38;;;1.90;;
74959;SDS011;63518;49.572;1.106;2023-05-18T11:54:54;5.53;;;1.50;;
74959;SDS011;63518;49.572;1.106;2023-05-18T11:57:23;7.10;;;1.92;;
74959;SDS011;63518;49.572;1.106;2023-05-18T11:59:55;5.75;;;1.73;;
74959;SDS011;63518;49.572;1.106;2023-05-18T12:02:31;7.75;;;2.10;;
74959;SDS011;63518;49.572;1.106;2023-05-18T12:05:00;7.88;;;1.90;;
74959;SDS011;63518;49.572;1.106;2023-05-18T12:07:28;5.28;;;1.80;;
74959;SDS011;63518;49.572;1.106;2023-05-18T12:09:58;6.68;;;2.10;;
74959;SDS011;63518;49.572;1.106;2023-05-18T12:12:29;9.80;;;2.70;;
74959;SDS011;63518;49.572;1.106;2023-05-18T12:14:57;6.95;;;2.72;;
74959;SDS011;63518;49.572;1.106;2023-05-18T12:17:38;8.38;;;2.55;;
74959;SDS011;63518;49.572;1.106;2023-05-18T12:20:17;8.38;;;2.30;;
74959;SDS011;63518;49.572;1.106;2023-05-18T12:22:51;6.90;;;2.42;;
74959;SDS011;63518;49.572;1.106;2023-05-18T12:25:23;8.18;;;2.80;;
74959;SDS011;63518;49.572;1.106;2023-05-18T12:27:55;7.35;;;2.40;;
74959;SDS011;63518;49.572;1.106;2023-05-18T12:30:23;6.93;;;2.50;;
74959;SDS011;63518;49.572;1.106;2023-05-18T12:32:54;6.78;;;2.20;;
74959;SDS011;63518;49.572;1.106;2023-05-18T12:35:26;7.47;;;2.42;;
74959;SDS011;63518;49.572;1.106;2023-05-18T12:37:59;7.03;;;2.27;;
74959;SDS011;63518;49.572;1.106;2023-05-18T12:40:33;7.50;;;2.33;;
74959;SDS011;63518;49.572;1.106;2023-05-18T12:43:10;8.63;;;2.25;;
74959;SDS011;63518;49.572;1.106;2023-05-18T12:45:39;6.90;;;2.70;;
74959;SDS011;63518;49.572;1.106;2023-05-18T12:48:11;6.20;;;2.53;;
74959;SDS011;63518;49.572;1.106;2023-05-18T12:50:48;6.25;;;2.13;;
74959;SDS011;63518;49.572;1.106;2023-05-18T12:53:17;8.23;;;2.65;;
74959;SDS011;63518;49.572;1.106;2023-05-18T12:55:44;9.65;;;3.53;;
74959;SDS011;63518;49.572;1.106;2023-05-18T12:58:21;9.07;;;3.30;;
74959;SDS011;63518;49.572;1.106;2023-05-18T13:00:52;8.18;;;3.05;;
74959;SDS011;63518;49.572;1.106;2023-05-18T13:03:31;8.05;;;2.97;;
74959;SDS011;63518;49.572;1.106;2023-05-18T13:06:03;7.55;;;3.00;;
74959;SDS011;63518;49.572;1.106;2023-05-18T13:08:35;9.80;;;3.50;;
74959;SDS011;63518;49.572;1.106;2023-05-18T13:11:04;11.10;;;3.88;;
74959;SDS011;63518;49.572;1.106;2023-05-18T13:13:56;10.45;;;3.40;;
74959;SDS011;63518;49.572;1.106;2023-05-18T13:16:27;10.43;;;3.53;;
74959;SDS011;63518;49.572;1.106;2023-05-18T13:18:59;11.48;;;3.35;;
74959;SDS011;63518;49.572;1.106;2023-05-18T13:21:32;11.00;;;3.63;;
74959;SDS011;63518;49.572;1.106;2023-05-18T13:24:01;9.10;;;3.60;;
74959;SDS011;63518;49.572;1.106;2023-05-18T13:26:30;9.73;;;3.78;;
74959;SDS011;63518;49.572;1.106;2023-05-18T13:28:57;10.70;;;4.10;;
74959;SDS011;63518;49.572;1.106;2023-05-18T13:31:26;9.95;;;3.38;;
74959;SDS011;63518;49.572;1.106;2023-05-18T13:34:03;10.57;;;3.60;;
74959;SDS011;63518;49.572;1.106;2023-05-18T13:36:30;9.70;;;3.45;;
74959;SDS011;63518;49.572;1.106;2023-05-18T13:39:01;9.88;;;4.13;;
74959;SDS011;63518;49.572;1.106;2023-05-18T13:41:32;9.88;;;3.65;;
74959;SDS011;63518;49.572;1.106;2023-05-18T13:44:01;9.53;;;3.03;;
74959;SDS011;63518;49.572;1.106;2023-05-18T13:46:29;10.75;;;3.70;;
74959;SDS011;63518;49.572;1.106;2023-05-18T13:48:56;10.10;;;3.42;;
74959;SDS011;63518;49.572;1.106;2023-05-18T13:51:23;9.40;;;3.38;;
74959;SDS011;63518;49.572;1.106;2023-05-18T13:53:50;9.80;;;3.60;;
74959;SDS011;63518;49.572;1.106;2023-05-18T13:56:17;13.37;;;4.00;;
74959;SDS011;63518;49.572;1.106;2023-05-18T13:58:44;10.15;;;4.13;;
74959;SDS011;63518;49.572;1.106;2023-05-18T14:01:12;9.65;;;4.05;;
74959;SDS011;63518;49.572;1.106;2023-05-18T14:03:40;11.98;;;4.50;;
74959;SDS011;63518;49.572;1.106;2023-05-18T14:06:11;9.57;;;3.90;;
74959;SDS011;63518;49.572;1.106;2023-05-18T14:08:43;10.20;;;3.72;;
74959;SDS011;63518;49.572;1.106;2023-05-18T14:11:17;11.50;;;3.90;;
74959;SDS011;63518;49.572;1.106;2023-05-18T14:13:47;9.07;;;4.07;;
74959;SDS011;63518;49.572;1.106;2023-05-18T14:16:19;10.27;;;4.03;;
74959;SDS011;63518;49.572;1.106;2023-05-18T14:18:48;10.82;;;3.83;;
74959;SDS011;63518;49.572;1.106;2023-05-18T14:21:29;11.02;;;4.18;;
74959;SDS011;63518;49.572;1.106;2023-05-18T14:23:59;9.95;;;4.13;;
74959;SDS011;63518;49.572;1.106;2023-05-18T14:26:29;10.13;;;3.80;;
74959;SDS011;63518;49.572;1.106;2023-05-18T14:29:04;10.20;;;3.97;;
74959;SDS011;63518;49.572;1.106;2023-05-18T14:31:31;10.75;;;4.03;;
74959;SDS011;63518;49.572;1.106;2023-05-18T14:34:02;8.57;;;3.30;;
74959;SDS011;63518;49.572;1.106;2023-05-18T14:36:30;11.13;;;3.60;;
74959;SDS011;63518;49.572;1.106;2023-05-18T14:38:57;9.70;;;3.75;;
74959;SDS011;63518;49.572;1.106;2023-05-18T14:41:35;9.40;;;3.70;;
74959;SDS011;63518;49.572;1.106;2023-05-18T14:44:12;10.23;;;3.17;;
74959;SDS011;63518;49.572;1.106;2023-05-18T14:46:39;10.18;;;3.42;;
74959;SDS011;63518;49.572;1.106;2023-05-18T14:49:06;8.50;;;3.20;;
74959;SDS011;63518;49.572;1.106;2023-05-18T14:51:33;7.83;;;3.10;;
74959;SDS011;63518;49.572;1.106;2023-05-18T14:54:01;8.30;;;3.10;;
74959;SDS011;63518;49.572;1.106;2023-05-18T14:56:28;9.47;;;3.90;;
74959;SDS011;63518;49.572;1.106;2023-05-18T14:58:54;9.00;;;3.10;;
74959;SDS011;63518;49.572;1.106;2023-05-18T15:01:27;9.13;;;3.45;;
74959;SDS011;63518;49.572;1.106;2023-05-18T15:03:54;9.63;;;3.47;;
74959;SDS011;63518;49.572;1.106;2023-05-18T15:06:21;7.82;;;3.22;;
74959;SDS011;63518;49.572;1.106;2023-05-18T15:08:48;7.72;;;3.08;;
74959;SDS011;63518;49.572;1.106;2023-05-18T15:11:15;9.77;;;3.30;;
74959;SDS011;63518;49.572;1.106;2023-05-18T15:13:51;9.63;;;3.05;;
74959;SDS011;63518;49.572;1.106;2023-05-18T15:16:23;10.05;;;3.40;;
74959;SDS011;63518;49.572;1.106;2023-05-18T15:18:52;8.63;;;3.20;;
74959;SDS011;63518;49.572;1.106;2023-05-18T15:21:19;9.13;;;3.20;;
74959;SDS011;63518;49.572;1.106;2023-05-18T15:23:56;7.88;;;3.03;;